EST,Max TemperatureF,Mean TemperatureF,Min TemperatureF,Max Dew PointF,MeanDew PointF,Min DewpointF,Max Humidity, Mean Humidity, Min Humidity, Max Sea Level PressureIn, Mean Sea Level PressureIn, Min Sea Level PressureIn, Max VisibilityMiles, Mean VisibilityMiles, Min VisibilityMiles, Max Wind SpeedMPH, Mean Wind SpeedMPH, Max Gust SpeedMPH,PrecipitationIn, CloudCover, Events, WindDirDegrees
2014-1-1,49,36,23,27,23,19,88,62,36,30.33,30.22,30.05,10,10,10,10,2,14,0.00,0,,181
2014-1-2,36,26,15,36,26,9,100,82,64,30.16,29.88,29.70,10,5,1,18,6,28,0.25,8,Rain-Snow,303
2014-1-3,21,15,8,9,5,2,80,65,49,30.51,30.40,30.18,10,9,2,17,5,25,T,3,Snow,303
2014-1-4,45,27,8,18,11,5,91,60,28,30.32,30.23,30.12,10,10,10,13,4,18,0.00,0,,152
2014-1-5,56,41,25,49,33,19,89,72,55,30.11,29.83,29.47,10,10,2,25,6,40,0.26,6,Rain,158
2014-1-6,43,21,-2,37,8,-15,92,75,57,30.41,30.05,29.55,10,6,1,24,12,39,0.11,8,Rain-Snow,268
2014-1-7,12,4,-4,1,-7,-14,73,63,52,30.58,30.49,30.43,10,10,6,17,7,26,0.00,2,,236
2014-1-8,33,20,7,18,9,0,80,62,43,30.54,30.48,30.44,10,10,10,12,3,17,0.00,2,,203
2014-1-9,41,33,25,28,21,19,88,65,41,30.55,30.46,30.33,10,10,10,8,1,10,T,7,,92
2014-1-10,52,43,34,48,39,29,100,88,75,30.30,30.17,29.84,10,7,0,32,2,32,0.11,7,Fog-Rain,107
2014-1-11,61,51,40,52,45,29,100,72,44,29.84,29.64,29.50,10,9,2,22,11,37,0.70,6,Rain-Thunderstorm,231
2014-1-12,50,43,36,32,31,27,76,61,46,30.09,30.00,29.85,10,10,10,17,7,25,0.00,5,,224
2014-1-13,53,44,35,45,36,26,93,70,46,29.99,29.87,29.78,10,10,7,16,7,23,0.25,6,Rain,194
2014-1-14,52,48,43,45,39,26,93,66,38,29.89,29.81,29.76,10,8,2,16,8,24,0.20,6,Rain,235
2014-1-15,36,31,25,36,22,15,75,61,47,30.07,29.99,29.89,10,10,7,10,7,17,T,7,Rain-Snow,273
2014-1-16,38,29,20,26,16,12,84,60,35,30.06,29.95,29.84,10,10,10,21,6,31,T,5,,199
2014-1-17,42,31,20,31,25,9,89,73,57,30.09,29.88,29.80,10,8,1,20,10,30,0.01,7,Rain-Snow,230
2014-1-18,29,22,15,21,13,7,75,64,53,30.12,30.01,29.82,10,8,2,13,6,18,T,7,Snow,217
2014-1-19,42,35,28,28,23,18,82,64,45,29.98,29.88,29.79,10,10,10,17,9,24,0.00,5,,230
2014-1-20,52,43,33,28,25,22,75,57,38,29.90,29.84,29.78,10,10,10,18,8,29,0.00,0,,254
2014-1-21,34,22,10,29,20,2,92,80,67,30.14,29.88,29.73,10,4,0,20,9,27,0.23,8,Fog-Snow,351
2014-1-22,17,8,-1,8,0,-5,87,69,51,30.21,30.15,30.09,10,10,4,12,5,16,T,5,,241
2014-1-23,18,11,4,13,0,-7,74,62,50,30.63,30.37,30.09,10,10,3,17,9,28,T,5,Snow,265
2014-1-24,21,9,-3,2,-2,-7,79,60,41,30.68,30.44,29.96,10,10,10,18,9,26,T,0,,201
2014-1-25,34,26,17,27,15,-2,92,62,32,29.94,29.71,29.55,10,6,0,28,13,37,0.18,6,Fog-Snow,242
2014-1-26,50,31,12,28,11,-2,58,46,34,29.97,29.77,29.63,10,10,10,22,7,29,0.00,4,,216
2014-1-27,48,29,9,31,6,-8,69,52,34,30.41,30.05,29.64,10,10,4,24,10,38,T,4,Snow,293
2014-1-28,11,6,0,-4,-7,-10,75,61,46,30.50,30.42,30.36,10,10,10,13,3,18,T,4,,11
2014-1-29,22,9,-4,0,-3,-8,87,61,35,30.44,30.39,30.35,10,10,10,12,4,16,0.00,0,,209
2014-1-30,37,19,1,5,2,-3,87,55,23,30.38,30.22,30.04,10,10,10,14,5,19,T,0,,169
2014-1-31,44,39,33,20,10,3,52,38,23,30.19,30.14,30.07,10,10,10,14,6,22,0.00,5,,200